sensor_id;sensor_type;location;lat;lon;timestamp;P1;durP1;ratioP1;P2;durP2;ratioP2
2538;SDS011;1280;49.760;9.664;2022-07-23T00:02:12;13.40;;;10.33;;
2538;SDS011;1280;49.760;9.664;2022-07-23T00:04:41;16.13;;;10.20;;
2538;SDS011;1280;49.760;9.664;2022-07-23T00:07:09;12.73;;;9.40;;
2538;SDS011;1280;49.760;9.664;2022-07-23T00:09:37;15.40;;;9.53;;
2538;SDS011;1280;49.760;9.664;2022-07-23T00:12:05;15.67;;;10.10;;
2538;SDS011;1280;49.760;9.664;2022-07-23T00:14:33;13.43;;;9.70;;
2538;SDS011;1280;49.760;9.664;2022-07-23T00:17:02;12.17;;;9.30;;
2538;SDS011;1280;49.760;9.664;2022-07-23T00:19:30;13.53;;;10.00;;
2538;SDS011;1280;49.760;9.664;2022-07-23T00:21:59;12.70;;;9.53;;
2538;SDS011;1280;49.760;9.664;2022-07-23T00:24:27;14.33;;;9.03;;
2538;SDS011;1280;49.760;9.664;2022-07-23T00:26:55;12.93;;;9.50;;
2538;SDS011;1280;49.760;9.664;2022-07-23T00:29:23;13.60;;;9.70;;
2538;SDS011;1280;49.760;9.664;2022-07-23T00:31:51;14.23;;;10.17;;
2538;SDS011;1280;49.760;9.664;2022-07-23T00:34:19;13.27;;;9.67;;
2538;SDS011;1280;49.760;9.664;2022-07-23T00:36:47;15.07;;;10.53;;
2538;SDS011;1280;49.760;9.664;2022-07-23T00:39:17;13.10;;;9.53;;
2538;SDS011;1280;49.760;9.664;2022-07-23T00:41:44;13.17;;;10.33;;
2538;SDS011;1280;49.760;9.664;2022-07-23T00:44:16;17.37;;;10.20;;
2538;SDS011;1280;49.760;9.664;2022-07-23T00:46:46;17.77;;;10.33;;
2538;SDS011;1280;49.760;9.664;2022-07-23T00:49:15;16.50;;;10.03;;
2538;SDS011;1280;49.760;9.664;2022-07-23T00:51:43;21.00;;;10.47;;
2538;SDS011;1280;49.760;9.664;2022-07-23T00:54:11;14.87;;;9.70;;
2538;SDS011;1280;49.760;9.664;2022-07-23T00:56:41;14.93;;;9.97;;
2538;SDS011;1280;49.760;9.664;2022-07-23T00:59:11;13.77;;;10.07;;
2538;SDS011;1280;49.760;9.664;2022-07-23T01:01:40;16.37;;;9.83;;
2538;SDS011;1280;49.760;9.664;2022-07-23T01:04:10;15.20;;;10.33;;
2538;SDS011;1280;49.760;9.664;2022-07-23T01:06:38;16.10;;;9.60;;
2538;SDS011;1280;49.760;9.664;2022-07-23T01:09:06;12.93;;;10.00;;
2538;SDS011;1280;49.760;9.664;2022-07-23T01:11:35;19.03;;;10.17;;
2538;SDS011;1280;49.760;9.664;2022-07-23T01:14:10;19.97;;;9.80;;
2538;SDS011;1280;49.760;9.664;2022-07-23T01:16:39;12.13;;;10.20;;
2538;SDS011;1280;49.760;9.664;2022-07-23T01:19:08;14.17;;;10.23;;
2538;SDS011;1280;49.760;9.664;2022-07-23T01:21:37;17.23;;;10.07;;
2538;SDS011;1280;49.760;9.664;2022-07-23T01:24:08;14.23;;;11.27;;
2538;SDS011;1280;49.760;9.664;2022-07-23T01:26:41;17.03;;;10.77;;
2538;SDS011;1280;49.760;9.664;2022-07-23T01:29:11;19.97;;;10.90;;
2538;SDS011;1280;49.760;9.664;2022-07-23T01:31:41;15.43;;;10.40;;
2538;SDS011;1280;49.760;9.664;2022-07-23T01:34:10;13.20;;;9.53;;
2538;SDS011;1280;49.760;9.664;2022-07-23T01:36:39;16.70;;;10.60;;
2538;SDS011;1280;49.760;9.664;2022-07-23T01:39:10;13.53;;;9.47;;
2538;SDS011;1280;49.760;9.664;2022-07-23T01:41:38;14.03;;;10.20;;
2538;SDS011;1280;49.760;9.664;2022-07-23T01:44:08;20.10;;;10.40;;
2538;SDS011;1280;49.760;9.664;2022-07-23T01:46:38;21.70;;;10.97;;
2538;SDS011;1280;49.760;9.664;2022-07-23T01:49:07;15.10;;;10.63;;
2538;SDS011;1280;49.760;9.664;2022-07-23T01:51:55;13.80;;;10.00;;
2538;SDS011;1280;49.760;9.664;2022-07-23T01:54:42;16.70;;;10.63;;
2538;SDS011;1280;49.760;9.664;2022-07-23T01:57:11;17.00;;;12.60;;
2538;SDS011;1280;49.760;9.664;2022-07-23T01:59:39;14.03;;;10.63;;
2538;SDS011;1280;49.760;9.664;2022-07-23T02:02:08;16.03;;;10.57;;
2538;SDS011;1280;49.760;9.664;2022-07-23T02:04:36;15.60;;;11.00;;
2538;SDS011;1280;49.760;9.664;2022-07-23T02:07:04;15.87;;;10.50;;
2538;SDS011;1280;49.760;9.664;2022-07-23T02:09:33;15.40;;;10.20;;
2538;SDS011;1280;49.760;9.664;2022-07-23T02:12:03;15.73;;;11.30;;
2538;SDS011;1280;49.760;9.664;2022-07-23T02:14:31;19.40;;;11.73;;
2538;SDS011;1280;49.760;9.664;2022-07-23T02:17:01;14.93;;;10.87;;
2538;SDS011;1280;49.760;9.664;2022-07-23T02:19:29;15.13;;;11.10;;
2538;SDS011;1280;49.760;9.664;2022-07-23T02:21:57;26.07;;;12.83;;
2538;SDS011;1280;49.760;9.664;2022-07-23T02:24:25;13.00;;;10.47;;
2538;SDS011;1280;49.760;9.664;2022-07-23T02:26:54;12.40;;;10.23;;
2538;SDS011;1280;49.760;9.664;2022-07-23T02:29:23;15.63;;;11.90;;
2538;SDS011;1280;49.760;9.664;2022-07-23T02:31:53;16.97;;;10.80;;
2538;SDS011;1280;49.760;9.664;2022-07-23T02:34:21;13.23;;;10.70;;
2538;SDS011;1280;49.760;9.664;2022-07-23T02:36:50;14.30;;;10.13;;
2538;SDS011;1280;49.760;9.664;2022-07-23T02:39:20;14.80;;;12.10;;
2538;SDS011;1280;49.760;9.664;2022-07-23T02:41:48;13.93;;;10.00;;
2538;SDS011;1280;49.760;9.664;2022-07-23T02:44:16;14.60;;;10.00;;
2538;SDS011;1280;49.760;9.664;2022-07-23T02:46:49;13.70;;;11.10;;
2538;SDS011;1280;49.760;9.664;2022-07-23T02:49:17;17.03;;;11.20;;
2538;SDS011;1280;49.760;9.664;2022-07-23T02:51:47;16.40;;;11.97;;
2538;SDS011;1280;49.760;9.664;2022-07-23T02:54:16;17.40;;;11.80;;
2538;SDS011;1280;49.760;9.664;2022-07-23T02:56:44;13.73;;;10.57;;
2538;SDS011;1280;49.760;9.664;2022-07-23T02:59:12;18.10;;;12.27;;
2538;SDS011;1280;49.760;9.664;2022-07-23T03:01:40;15.20;;;11.73;;
2538;SDS011;1280;49.760;9.664;2022-07-23T03:04:09;14.03;;;11.30;;
2538;SDS011;1280;49.760;9.664;2022-07-23T03:06:37;15.23;;;10.73;;
2538;SDS011;1280;49.760;9.664;2022-07-23T03:09:05;16.83;;;11.33;;
2538;SDS011;1280;49.760;9.664;2022-07-23T03:11:33;12.90;;;10.40;;
2538;SDS011;1280;49.760;9.664;2022-07-23T03:14:02;13.60;;;11.37;;
2538;SDS011;1280;49.760;9.664;2022-07-23T03:16:30;13.53;;;11.07;;
2538;SDS011;1280;49.760;9.664;2022-07-23T03:18:58;12.20;;;10.90;;
2538;SDS011;1280;49.760;9.664;2022-07-23T03:21:33;13.90;;;11.63;;
2538;SDS011;1280;49.760;9.664;2022-07-23T03:24:05;14.90;;;10.20;;
2538;SDS011;1280;49.760;9.664;2022-07-23T03:26:33;14.37;;;11.77;;
2538;SDS011;1280;49.760;9.664;2022-07-23T03:29:01;14.10;;;10.63;;
2538;SDS011;1280;49.760;9.664;2022-07-23T03:31:31;13.80;;;10.30;;
2538;SDS011;1280;49.760;9.664;2022-07-23T03:33:59;14.73;;;10.70;;
2538;SDS011;1280;49.760;9.664;2022-07-23T03:36:28;13.67;;;11.10;;
2538;SDS011;1280;49.760;9.664;2022-07-23T03:38:57;16.27;;;11.50;;
2538;SDS011;1280;49.760;9.664;2022-07-23T03:41:27;15.20;;;11.43;;
2538;SDS011;1280;49.760;9.664;2022-07-23T03:43:55;17.50;;;12.00;;
2538;SDS011;1280;49.760;9.664;2022-07-23T03:46:25;18.50;;;12.47;;
2538;SDS011;1280;49.760;9.664;2022-07-23T03:48:53;13.90;;;11.43;;
2538;SDS011;1280;49.760;9.664;2022-07-23T03:51:24;18.60;;;12.23;;
2538;SDS011;1280;49.760;9.664;2022-07-23T03:53:52;13.53;;;10.93;;
2538;SDS011;1280;49.760;9.664;2022-07-23T03:56:23;15.67;;;10.77;;
2538;SDS011;1280;49.760;9.664;2022-07-23T03:58:52;15.23;;;11.93;;
2538;SDS011;1280;49.760;9.664;2022-07-23T04:01:20;13.50;;;11.40;;
2538;SDS011;1280;49.760;9.664;2022-07-23T04:03:48;13.87;;;11.70;;
2538;SDS011;1280;49.760;9.664;2022-07-23T04:06:16;14.20;;;11.60;;
2538;SDS011;1280;49.760;9.664;2022-07-23T04:08:45;16.37;;;12.20;;
2538;SDS011;1280;49.760;9.664;2022-07-23T04:11:13;14.57;;;11.60;;
2538;SDS011;1280;49.760;9.664;2022-07-23T04:13:42;15.10;;;12.13;;
2538;SDS011;1280;49.760;9.664;2022-07-23T04:16:11;15.27;;;11.60;;
2538;SDS011;1280;49.760;9.664;2022-07-23T04:18:39;18.00;;;12.43;;
2538;SDS011;1280;49.760;9.664;2022-07-23T04:21:15;14.20;;;10.63;;
2538;SDS011;1280;49.760;9.664;2022-07-23T04:23:44;13.60;;;10.93;;
2538;SDS011;1280;49.760;9.664;2022-07-23T04:26:13;17.07;;;11.43;;
2538;SDS011;1280;49.760;9.664;2022-07-23T04:28:46;14.70;;;11.43;;
2538;SDS011;1280;49.760;9.664;2022-07-23T04:31:15;15.00;;;11.03;;
2538;SDS011;1280;49.760;9.664;2022-07-23T04:33:43;15.47;;;11.80;;
2538;SDS011;1280;49.760;9.664;2022-07-23T04:36:11;15.53;;;12.10;;
2538;SDS011;1280;49.760;9.664;2022-07-23T04:38:39;14.17;;;10.47;;
2538;SDS011;1280;49.760;9.664;2022-07-23T04:41:07;15.03;;;12.40;;
2538;SDS011;1280;49.760;9.664;2022-07-23T04:43:37;15.70;;;12.90;;
2538;SDS011;1280;49.760;9.664;2022-07-23T04:46:06;14.40;;;11.53;;
2538;SDS011;1280;49.760;9.664;2022-07-23T04:48:42;14.13;;;10.80;;
2538;SDS011;1280;49.760;9.664;2022-07-23T04:51:10;13.17;;;11.10;;
2538;SDS011;1280;49.760;9.664;2022-07-23T04:53:38;17.13;;;12.10;;
2538;SDS011;1280;49.760;9.664;2022-07-23T04:56:06;14.70;;;11.17;;
2538;SDS011;1280;49.760;9.664;2022-07-23T04:58:35;15.20;;;12.53;;
2538;SDS011;1280;49.760;9.664;2022-07-23T05:01:03;15.60;;;11.10;;
2538;SDS011;1280;49.760;9.664;2022-07-23T05:03:35;14.73;;;12.23;;
2538;SDS011;1280;49.760;9.664;2022-07-23T05:06:03;15.33;;;13.50;;
2538;SDS011;1280;49.760;9.664;2022-07-23T05:08:31;16.87;;;12.73;;
2538;SDS011;1280;49.760;9.664;2022-07-23T05:10:59;16.27;;;13.10;;
2538;SDS011;1280;49.760;9.664;2022-07-23T05:13:28;15.40;;;13.40;;
2538;SDS011;1280;49.760;9.664;2022-07-23T05:15:57;14.87;;;12.30;;
2538;SDS011;1280;49.760;9.664;2022-07-23T05:18:25;14.13;;;11.97;;
2538;SDS011;1280;49.760;9.664;2022-07-23T05:20:55;15.90;;;12.47;;
2538;SDS011;1280;49.760;9.664;2022-07-23T05:23:23;16.70;;;12.10;;
2538;SDS011;1280;49.760;9.664;2022-07-23T05:25:51;16.50;;;12.87;;
2538;SDS011;1280;49.760;9.664;2022-07-23T05:28:20;15.67;;;12.83;;
2538;SDS011;1280;49.760;9.664;2022-07-23T05:30:50;20.40;;;13.93;;
2538;SDS011;1280;49.760;9.664;2022-07-23T05:33:18;16.53;;;13.57;;
2538;SDS011;1280;49.760;9.664;2022-07-23T05:35:47;16.70;;;12.30;;
2538;SDS011;1280;49.760;9.664;2022-07-23T05:38:23;13.53;;;11.03;;
2538;SDS011;1280;49.760;9.664;2022-07-23T05:40:51;18.20;;;10.73;;
2538;SDS011;1280;49.760;9.664;2022-07-23T05:43:20;16.80;;;11.30;;
2538;SDS011;1280;49.760;9.664;2022-07-23T05:45:48;18.73;;;11.27;;
2538;SDS011;1280;49.760;9.664;2022-07-23T05:48:16;12.73;;;10.17;;
2538;SDS011;1280;49.760;9.664;2022-07-23T05:50:57;12.80;;;9.87;;
2538;SDS011;1280;49.760;9.664;2022-07-23T05:53:31;13.63;;;10.00;;
2538;SDS011;1280;49.760;9.664;2022-07-23T05:56:04;14.10;;;9.60;;
2538;SDS011;1280;49.760;9.664;2022-07-23T05:58:32;15.80;;;10.70;;
2538;SDS011;1280;49.760;9.664;2022-07-23T06:01:01;16.27;;;11.20;;
2538;SDS011;1280;49.760;9.664;2022-07-23T06:03:35;14.13;;;9.57;;
2538;SDS011;1280;49.760;9.664;2022-07-23T06:06:03;13.93;;;9.60;;
2538;SDS011;1280;49.760;9.664;2022-07-23T06:08:33;12.27;;;9.70;;
2538;SDS011;1280;49.760;9.664;2022-07-23T06:11:01;14.30;;;8.17;;
2538;SDS011;1280;49.760;9.664;2022-07-23T06:13:29;12.73;;;8.67;;
2538;SDS011;1280;49.760;9.664;2022-07-23T06:15:58;23.20;;;8.77;;
2538;SDS011;1280;49.760;9.664;2022-07-23T06:18:26;12.67;;;8.90;;
2538;SDS011;1280;49.760;9.664;2022-07-23T06:20:54;10.57;;;7.67;;
2538;SDS011;1280;49.760;9.664;2022-07-23T06:23:26;16.40;;;9.50;;
2538;SDS011;1280;49.760;9.664;2022-07-23T06:25:55;18.00;;;8.87;;
2538;SDS011;1280;49.760;9.664;2022-07-23T06:28:23;15.60;;;9.30;;
2538;SDS011;1280;49.760;9.664;2022-07-23T06:30:51;11.50;;;8.60;;
2538;SDS011;1280;49.760;9.664;2022-07-23T06:33:22;14.73;;;9.30;;
2538;SDS011;1280;49.760;9.664;2022-07-23T06:35:50;14.73;;;9.17;;
2538;SDS011;1280;49.760;9.664;2022-07-23T06:38:19;11.33;;;8.67;;
2538;SDS011;1280;49.760;9.664;2022-07-23T06:40:47;12.73;;;8.23;;
2538;SDS011;1280;49.760;9.664;2022-07-23T06:43:17;12.40;;;9.27;;
2538;SDS011;1280;49.760;9.664;2022-07-23T06:45:45;11.60;;;8.90;;
2538;SDS011;1280;49.760;9.664;2022-07-23T06:48:13;11.60;;;9.03;;
2538;SDS011;1280;49.760;9.664;2022-07-23T06:50:41;15.23;;;8.87;;
2538;SDS011;1280;49.760;9.664;2022-07-23T06:53:09;11.50;;;8.33;;
2538;SDS011;1280;49.760;9.664;2022-07-23T06:55:40;13.37;;;8.17;;
2538;SDS011;1280;49.760;9.664;2022-07-23T06:58:09;10.63;;;8.00;;
2538;SDS011;1280;49.760;9.664;2022-07-23T07:00:38;12.00;;;9.03;;
2538;SDS011;1280;49.760;9.664;2022-07-23T07:03:06;14.50;;;9.93;;
2538;SDS011;1280;49.760;9.664;2022-07-23T07:05:34;15.03;;;8.83;;
2538;SDS011;1280;49.760;9.664;2022-07-23T07:08:02;14.60;;;8.60;;
2538;SDS011;1280;49.760;9.664;2022-07-23T07:10:31;12.00;;;8.50;;
2538;SDS011;1280;49.760;9.664;2022-07-23T07:12:59;13.10;;;8.60;;
2538;SDS011;1280;49.760;9.664;2022-07-23T07:15:27;11.63;;;8.80;;
2538;SDS011;1280;49.760;9.664;2022-07-23T07:17:56;14.23;;;8.13;;
2538;SDS011;1280;49.760;9.664;2022-07-23T07:20:24;13.50;;;8.97;;
2538;SDS011;1280;49.760;9.664;2022-07-23T07:22:52;12.50;;;9.00;;
2538;SDS011;1280;49.760;9.664;2022-07-23T07:25:20;10.90;;;8.63;;
2538;SDS011;1280;49.760;9.664;2022-07-23T07:27:48;12.10;;;8.90;;
2538;SDS011;1280;49.760;9.664;2022-07-23T07:30:16;12.30;;;8.40;;
2538;SDS011;1280;49.760;9.664;2022-07-23T07:32:44;16.80;;;8.90;;
2538;SDS011;1280;49.760;9.664;2022-07-23T07:35:23;12.77;;;9.00;;
2538;SDS011;1280;49.760;9.664;2022-07-23T07:37:52;16.10;;;9.77;;
2538;SDS011;1280;49.760;9.664;2022-07-23T07:40:20;12.80;;;9.60;;
2538;SDS011;1280;49.760;9.664;2022-07-23T07:42:48;14.50;;;9.30;;
2538;SDS011;1280;49.760;9.664;2022-07-23T07:45:19;11.87;;;9.10;;
2538;SDS011;1280;49.760;9.664;2022-07-23T07:47:48;13.07;;;8.83;;
2538;SDS011;1280;49.760;9.664;2022-07-23T07:50:16;12.67;;;9.03;;
2538;SDS011;1280;49.760;9.664;2022-07-23T07:52:46;19.90;;;10.03;;
2538;SDS011;1280;49.760;9.664;2022-07-23T07:55:14;12.60;;;9.30;;
2538;SDS011;1280;49.760;9.664;2022-07-23T07:57:43;13.20;;;9.67;;
2538;SDS011;1280;49.760;9.664;2022-07-23T08:00:15;13.40;;;9.33;;
2538;SDS011;1280;49.760;9.664;2022-07-23T08:02:45;13.60;;;8.50;;
2538;SDS011;1280;49.760;9.664;2022-07-23T08:05:18;10.97;;;8.30;;
2538;SDS011;1280;49.760;9.664;2022-07-23T08:07:53;17.47;;;9.67;;
2538;SDS011;1280;49.760;9.664;2022-07-23T08:10:22;11.97;;;8.83;;
2538;SDS011;1280;49.760;9.664;2022-07-23T08:12:51;11.83;;;8.77;;
2538;SDS011;1280;49.760;9.664;2022-07-23T08:15:21;14.53;;;8.97;;
2538;SDS011;1280;49.760;9.664;2022-07-23T08:17:50;14.30;;;9.63;;
2538;SDS011;1280;49.760;9.664;2022-07-23T08:20:18;11.50;;;8.50;;
2538;SDS011;1280;49.760;9.664;2022-07-23T08:22:49;12.17;;;9.40;;
2538;SDS011;1280;49.760;9.664;2022-07-23T08:25:21;14.03;;;9.03;;
2538;SDS011;1280;49.760;9.664;2022-07-23T08:27:50;14.23;;;9.70;;
2538;SDS011;1280;49.760;9.664;2022-07-23T08:30:19;11.07;;;8.70;;
2538;SDS011;1280;49.760;9.664;2022-07-23T08:32:48;13.70;;;9.93;;
2538;SDS011;1280;49.760;9.664;2022-07-23T08:35:24;11.87;;;8.90;;
2538;SDS011;1280;49.760;9.664;2022-07-23T08:37:55;11.90;;;7.77;;
2538;SDS011;1280;49.760;9.664;2022-07-23T08:40:25;13.97;;;8.97;;
2538;SDS011;1280;49.760;9.664;2022-07-23T08:42:54;12.93;;;9.50;;
2538;SDS011;1280;49.760;9.664;2022-07-23T08:45:23;13.33;;;8.43;;
2538;SDS011;1280;49.760;9.664;2022-07-23T08:47:52;11.13;;;9.00;;
2538;SDS011;1280;49.760;9.664;2022-07-23T08:50:23;19.43;;;9.13;;
2538;SDS011;1280;49.760;9.664;2022-07-23T08:52:52;12.43;;;8.40;;
2538;SDS011;1280;49.760;9.664;2022-07-23T08:55:21;13.10;;;8.90;;
2538;SDS011;1280;49.760;9.664;2022-07-23T08:57:52;13.53;;;10.00;;
2538;SDS011;1280;49.760;9.664;2022-07-23T09:00:20;13.70;;;9.43;;
2538;SDS011;1280;49.760;9.664;2022-07-23T09:02:49;18.20;;;10.70;;
2538;SDS011;1280;49.760;9.664;2022-07-23T09:05:18;9.77;;;7.93;;
2538;SDS011;1280;49.760;9.664;2022-07-23T09:08:06;12.10;;;9.43;;
2538;SDS011;1280;49.760;9.664;2022-07-23T09:10:49;11.23;;;9.60;;
2538;SDS011;1280;49.760;9.664;2022-07-23T09:13:25;13.47;;;9.53;;
2538;SDS011;1280;49.760;9.664;2022-07-23T09:15:58;10.70;;;8.80;;
2538;SDS011;1280;49.760;9.664;2022-07-23T09:18:28;12.80;;;10.27;;
2538;SDS011;1280;49.760;9.664;2022-07-23T09:21:10;13.20;;;10.10;;
2538;SDS011;1280;49.760;9.664;2022-07-23T09:23:43;13.87;;;9.83;;
2538;SDS011;1280;49.760;9.664;2022-07-23T09:26:22;16.30;;;8.93;;
2538;SDS011;1280;49.760;9.664;2022-07-23T09:29:07;13.70;;;10.10;;
2538;SDS011;1280;49.760;9.664;2022-07-23T09:31:42;14.63;;;10.80;;
2538;SDS011;1280;49.760;9.664;2022-07-23T09:34:16;14.77;;;9.27;;
2538;SDS011;1280;49.760;9.664;2022-07-23T09:36:46;28.03;;;14.40;;
2538;SDS011;1280;49.760;9.664;2022-07-23T09:39:15;22.67;;;12.40;;
2538;SDS011;1280;49.760;9.664;2022-07-23T09:41:52;21.33;;;11.90;;
2538;SDS011;1280;49.760;9.664;2022-07-23T09:44:22;16.27;;;10.10;;
2538;SDS011;1280;49.760;9.664;2022-07-23T09:46:57;24.50;;;11.83;;
2538;SDS011;1280;49.760;9.664;2022-07-23T09:49:27;16.57;;;11.10;;
2538;SDS011;1280;49.760;9.664;2022-07-23T09:51:56;16.07;;;10.23;;
2538;SDS011;1280;49.760;9.664;2022-07-23T09:54:27;13.67;;;10.23;;
2538;SDS011;1280;49.760;9.664;2022-07-23T09:56:57;14.80;;;9.40;;
2538;SDS011;1280;49.760;9.664;2022-07-23T09:59:29;15.87;;;10.40;;
2538;SDS011;1280;49.760;9.664;2022-07-23T10:01:59;19.40;;;12.30;;
2538;SDS011;1280;49.760;9.664;2022-07-23T10:04:33;16.73;;;10.87;;
2538;SDS011;1280;49.760;9.664;2022-07-23T10:07:15;16.03;;;10.30;;
2538;SDS011;1280;49.760;9.664;2022-07-23T10:10:19;16.10;;;10.30;;
2538;SDS011;1280;49.760;9.664;2022-07-23T10:13:15;15.43;;;11.73;;
2538;SDS011;1280;49.760;9.664;2022-07-23T10:16:05;14.00;;;8.73;;
2538;SDS011;1280;49.760;9.664;2022-07-23T10:18:35;13.33;;;9.40;;
2538;SDS011;1280;49.760;9.664;2022-07-23T10:21:10;12.73;;;9.83;;
2538;SDS011;1280;49.760;9.664;2022-07-23T10:23:44;12.33;;;10.20;;
2538;SDS011;1280;49.760;9.664;2022-07-23T10:26:19;11.17;;;9.03;;
2538;SDS011;1280;49.760;9.664;2022-07-23T10:29:01;16.10;;;9.83;;
2538;SDS011;1280;49.760;9.664;2022-07-23T10:31:45;11.40;;;8.63;;
2538;SDS011;1280;49.760;9.664;2022-07-23T10:34:31;13.07;;;9.30;;
2538;SDS011;1280;49.760;9.664;2022-07-23T10:37:11;11.40;;;8.10;;
2538;SDS011;1280;49.760;9.664;2022-07-23T10:39:47;11.93;;;8.40;;
2538;SDS011;1280;49.760;9.664;2022-07-23T10:42:15;10.50;;;8.27;;
2538;SDS011;1280;49.760;9.664;2022-07-23T10:44:45;12.43;;;9.33;;
2538;SDS011;1280;49.760;9.664;2022-07-23T10:47:25;13.33;;;10.00;;
2538;SDS011;1280;49.760;9.664;2022-07-23T10:50:22;10.40;;;8.37;;
2538;SDS011;1280;49.760;9.664;2022-07-23T10:55:46;13.20;;;9.30;;
2538;SDS011;1280;49.760;9.664;2022-07-23T10:58:23;11.20;;;8.17;;
2538;SDS011;1280;49.760;9.664;2022-07-23T11:04:01;11.50;;;9.10;;
2538;SDS011;1280;49.760;9.664;2022-07-23T11:09:39;11.30;;;9.47;;
2538;SDS011;1280;49.760;9.664;2022-07-23T11:15:03;14.87;;;9.47;;
2538;SDS011;1280;49.760;9.664;2022-07-23T11:17:34;14.67;;;9.73;;
2538;SDS011;1280;49.760;9.664;2022-07-23T11:22:59;14.57;;;9.90;;
2538;SDS011;1280;49.760;9.664;2022-07-23T11:25:30;17.53;;;12.77;;
2538;SDS011;1280;49.760;9.664;2022-07-23T11:28:15;17.70;;;12.50;;
2538;SDS011;1280;49.760;9.664;2022-07-23T11:30:47;15.00;;;11.03;;
2538;SDS011;1280;49.760;9.664;2022-07-23T11:33:16;13.67;;;9.90;;
2538;SDS011;1280;49.760;9.664;2022-07-23T11:35:47;11.90;;;9.70;;
2538;SDS011;1280;49.760;9.664;2022-07-23T11:38:18;11.20;;;9.83;;
2538;SDS011;1280;49.760;9.664;2022-07-23T11:40:47;12.23;;;9.30;;
2538;SDS011;1280;49.760;9.664;2022-07-23T11:43:17;12.03;;;9.30;;
2538;SDS011;1280;49.760;9.664;2022-07-23T11:45:46;12.30;;;9.68;;
2538;SDS011;1280;49.760;9.664;2022-07-23T11:48:17;11.30;;;8.83;;
2538;SDS011;1280;49.760;9.664;2022-07-23T11:50:47;14.93;;;10.00;;
2538;SDS011;1280;49.760;9.664;2022-07-23T11:53:26;13.30;;;10.00;;
2538;SDS011;1280;49.760;9.664;2022-07-23T11:56:02;12.30;;;8.97;;
2538;SDS011;1280;49.760;9.664;2022-07-23T11:58:31;16.65;;;10.45;;
2538;SDS011;1280;49.760;9.664;2022-07-23T12:00:59;20.50;;;11.90;;
2538;SDS011;1280;49.760;9.664;2022-07-23T12:03:27;53.73;;;26.87;;
2538;SDS011;1280;49.760;9.664;2022-07-23T12:05:57;19.87;;;11.57;;
2538;SDS011;1280;49.760;9.664;2022-07-23T12:08:25;14.00;;;9.97;;
2538;SDS011;1280;49.760;9.664;2022-07-23T12:10:54;12.97;;;9.20;;
2538;SDS011;1280;49.760;9.664;2022-07-23T12:13:22;11.60;;;8.70;;
2538;SDS011;1280;49.760;9.664;2022-07-23T12:15:51;11.57;;;8.90;;
2538;SDS011;1280;49.760;9.664;2022-07-23T12:18:20;10.70;;;8.80;;
2538;SDS011;1280;49.760;9.664;2022-07-23T12:20:50;24.67;;;13.70;;
2538;SDS011;1280;49.760;9.664;2022-07-23T12:23:22;12.53;;;9.47;;
2538;SDS011;1280;49.760;9.664;2022-07-23T12:25:51;11.07;;;8.47;;
2538;SDS011;1280;49.760;9.664;2022-07-23T12:28:21;11.13;;;8.27;;
2538;SDS011;1280;49.760;9.664;2022-07-23T12:30:55;12.10;;;8.97;;
2538;SDS011;1280;49.760;9.664;2022-07-23T12:33:24;10.73;;;8.33;;
2538;SDS011;1280;49.760;9.664;2022-07-23T12:35:54;11.70;;;8.60;;
2538;SDS011;1280;49.760;9.664;2022-07-23T12:38:25;10.60;;;8.40;;
2538;SDS011;1280;49.760;9.664;2022-07-23T12:40:55;10.03;;;8.20;;
2538;SDS011;1280;49.760;9.664;2022-07-23T12:43:25;11.97;;;8.87;;
2538;SDS011;1280;49.760;9.664;2022-07-23T12:52:32;11.63;;;8.70;;
2538;SDS011;1280;49.760;9.664;2022-07-23T12:55:02;12.07;;;8.50;;
2538;SDS011;1280;49.760;9.664;2022-07-23T13:03:32;11.30;;;8.20;;
2538;SDS011;1280;49.760;9.664;2022-07-23T13:06:06;10.63;;;8.30;;
2538;SDS011;1280;49.760;9.664;2022-07-23T13:08:36;12.57;;;8.73;;
2538;SDS011;1280;49.760;9.664;2022-07-23T13:11:07;10.20;;;8.03;;
2538;SDS011;1280;49.760;9.664;2022-07-23T13:13:35;11.27;;;9.17;;
2538;SDS011;1280;49.760;9.664;2022-07-23T13:16:04;12.27;;;8.37;;
2538;SDS011;1280;49.760;9.664;2022-07-23T13:18:37;10.30;;;8.23;;
2538;SDS011;1280;49.760;9.664;2022-07-23T13:24:53;10.17;;;8.13;;
2538;SDS011;1280;49.760;9.664;2022-07-23T13:27:22;13.03;;;8.47;;
2538;SDS011;1280;49.760;9.664;2022-07-23T13:29:50;11.17;;;8.43;;
2538;SDS011;1280;49.760;9.664;2022-07-23T13:32:19;11.70;;;8.70;;
2538;SDS011;1280;49.760;9.664;2022-07-23T13:34:47;10.60;;;8.43;;
2538;SDS011;1280;49.760;9.664;2022-07-23T13:37:16;9.60;;;7.70;;
2538;SDS011;1280;49.760;9.664;2022-07-23T13:39:45;10.93;;;8.10;;
2538;SDS011;1280;49.760;9.664;2022-07-23T13:42:13;11.40;;;8.10;;
2538;SDS011;1280;49.760;9.664;2022-07-23T13:44:42;10.60;;;8.30;;
2538;SDS011;1280;49.760;9.664;2022-07-23T13:47:10;11.30;;;7.33;;
2538;SDS011;1280;49.760;9.664;2022-07-23T13:49:38;15.53;;;7.60;;
2538;SDS011;1280;49.760;9.664;2022-07-23T13:52:06;10.93;;;8.03;;
2538;SDS011;1280;49.760;9.664;2022-07-23T13:54:34;9.30;;;6.53;;
2538;SDS011;1280;49.760;9.664;2022-07-23T13:57:03;10.47;;;7.77;;
2538;SDS011;1280;49.760;9.664;2022-07-23T13:59:31;32.40;;;9.07;;
2538;SDS011;1280;49.760;9.664;2022-07-23T14:02:00;13.87;;;8.80;;
2538;SDS011;1280;49.760;9.664;2022-07-23T14:04:49;28.53;;;8.97;;
2538;SDS011;1280;49.760;9.664;2022-07-23T14:07:17;14.03;;;8.70;;
2538;SDS011;1280;49.760;9.664;2022-07-23T14:09:47;12.73;;;8.07;;
2538;SDS011;1280;49.760;9.664;2022-07-23T14:12:17;11.37;;;7.20;;
2538;SDS011;1280;49.760;9.664;2022-07-23T14:14:48;9.87;;;7.23;;
2538;SDS011;1280;49.760;9.664;2022-07-23T14:17:18;12.10;;;7.50;;
2538;SDS011;1280;49.760;9.664;2022-07-23T14:19:47;9.33;;;7.10;;
2538;SDS011;1280;49.760;9.664;2022-07-23T14:22:16;9.70;;;7.53;;
2538;SDS011;1280;49.760;9.664;2022-07-23T14:24:46;9.40;;;7.00;;
2538;SDS011;1280;49.760;9.664;2022-07-23T14:27:16;10.40;;;6.43;;
2538;SDS011;1280;49.760;9.664;2022-07-23T14:29:46;8.40;;;6.10;;
2538;SDS011;1280;49.760;9.664;2022-07-23T14:32:14;11.40;;;6.80;;
2538;SDS011;1280;49.760;9.664;2022-07-23T14:34:43;9.93;;;6.80;;
2538;SDS011;1280;49.760;9.664;2022-07-23T14:37:15;13.77;;;7.07;;
2538;SDS011;1280;49.760;9.664;2022-07-23T14:39:43;11.70;;;7.13;;
2538;SDS011;1280;49.760;9.664;2022-07-23T14:42:15;9.13;;;7.43;;
2538;SDS011;1280;49.760;9.664;2022-07-23T14:44:43;9.83;;;7.20;;
2538;SDS011;1280;49.760;9.664;2022-07-23T14:47:12;11.17;;;7.47;;
2538;SDS011;1280;49.760;9.664;2022-07-23T14:49:48;10.50;;;6.43;;
2538;SDS011;1280;49.760;9.664;2022-07-23T14:52:16;10.20;;;6.90;;
2538;SDS011;1280;49.760;9.664;2022-07-23T14:54:44;10.13;;;6.20;;
2538;SDS011;1280;49.760;9.664;2022-07-23T14:57:15;12.20;;;7.27;;
2538;SDS011;1280;49.760;9.664;2022-07-23T14:59:50;8.83;;;6.13;;
2538;SDS011;1280;49.760;9.664;2022-07-23T15:02:20;11.93;;;7.50;;
2538;SDS011;1280;49.760;9.664;2022-07-23T15:04:50;11.27;;;7.60;;
2538;SDS011;1280;49.760;9.664;2022-07-23T15:07:17;10.20;;;6.63;;
2538;SDS011;1280;49.760;9.664;2022-07-23T15:09:46;10.13;;;7.33;;
2538;SDS011;1280;49.760;9.664;2022-07-23T15:12:14;10.07;;;6.47;;
2538;SDS011;1280;49.760;9.664;2022-07-23T15:14:42;9.63;;;7.20;;
2538;SDS011;1280;49.760;9.664;2022-07-23T15:17:10;10.37;;;7.50;;
2538;SDS011;1280;49.760;9.664;2022-07-23T15:19:40;10.20;;;6.43;;
2538;SDS011;1280;49.760;9.664;2022-07-23T15:22:09;10.83;;;7.10;;
2538;SDS011;1280;49.760;9.664;2022-07-23T15:24:37;10.90;;;7.37;;
2538;SDS011;1280;49.760;9.664;2022-07-23T15:27:05;11.23;;;6.90;;
2538;SDS011;1280;49.760;9.664;2022-07-23T15:29:33;11.27;;;7.40;;
2538;SDS011;1280;49.760;9.664;2022-07-23T15:32:01;10.03;;;6.20;;
2538;SDS011;1280;49.760;9.664;2022-07-23T15:34:29;8.50;;;6.30;;
2538;SDS011;1280;49.760;9.664;2022-07-23T15:36:59;9.33;;;7.00;;
2538;SDS011;1280;49.760;9.664;2022-07-23T15:39:37;9.07;;;6.40;;
2538;SDS011;1280;49.760;9.664;2022-07-23T15:42:06;10.00;;;6.10;;
2538;SDS011;1280;49.760;9.664;2022-07-23T15:44:40;10.47;;;7.63;;
2538;SDS011;1280;49.760;9.664;2022-07-23T15:47:08;8.70;;;7.13;;